createdAt,value
2023-04-02T00:01:55.525Z,13.64
2023-04-02T00:04:23.751Z,13.70
2023-04-02T00:07:15.468Z,13.70
2023-04-02T00:09:42.545Z,13.69
2023-04-02T00:12:19.055Z,13.69
2023-04-02T00:14:48.328Z,13.68
2023-04-02T00:17:15.571Z,13.66
2023-04-02T00:19:54.605Z,13.67
2023-04-02T00:22:27.078Z,13.61
2023-04-02T00:24:56.192Z,13.63
2023-04-02T00:27:23.921Z,13.66
2023-04-02T00:29:55.721Z,13.68
2023-04-02T00:32:27.512Z,13.68
2023-04-02T00:34:55.741Z,13.72
2023-04-02T00:37:27.623Z,13.75
2023-04-02T00:40:16.766Z,13.75
2023-04-02T00:42:44.910Z,13.71
2023-04-02T00:45:23.805Z,13.71
2023-04-02T00:47:52.067Z,13.71
2023-04-02T00:50:25.261Z,13.70
2023-04-02T00:52:54.651Z,13.68
2023-04-02T00:55:33.338Z,13.62
2023-04-02T00:58:01.979Z,13.59
2023-04-02T01:00:34.850Z,13.55
2023-04-02T01:03:36.498Z,13.53
2023-04-02T01:06:18.837Z,13.57
2023-04-02T01:09:12.222Z,13.52
2023-04-02T01:12:03.580Z,13.51
2023-04-02T01:15:08.332Z,13.47
2023-04-02T01:17:49.088Z,13.49
2023-04-02T01:21:09.412Z,13.52
2023-04-02T01:23:52.944Z,13.47
2023-04-02T01:26:47.961Z,13.50
2023-04-02T01:29:24.633Z,13.48
2023-04-02T01:31:53.957Z,13.48
2023-04-02T01:34:25.261Z,13.47
2023-04-02T01:37:13.648Z,13.47
2023-04-02T01:40:06.346Z,13.46
2023-04-02T01:43:03.874Z,13.43
2023-04-02T01:45:31.094Z,13.43
2023-04-02T01:47:59.228Z,13.39
2023-04-02T01:50:31.910Z,13.37
2023-04-02T01:53:12.006Z,13.38
2023-04-02T01:55:38.978Z,13.38
2023-04-02T01:58:06.970Z,13.37
2023-04-02T02:00:36.338Z,13.36
2023-04-02T02:03:06.356Z,13.33
2023-04-02T02:05:33.842Z,13.33
2023-04-02T02:08:01.429Z,13.37
2023-04-02T02:10:39.900Z,13.34
2023-04-02T02:13:06.898Z,13.36
2023-04-02T02:15:36.453Z,13.33
2023-04-02T02:18:05.967Z,13.34
2023-04-02T02:20:34.514Z,13.30
2023-04-02T02:23:03.929Z,13.32
2023-04-02T02:25:33.645Z,13.31
2023-04-02T02:28:03.687Z,13.28
2023-04-02T02:30:33.359Z,13.25
2023-04-02T02:33:07.032Z,13.25
2023-04-02T02:36:05.568Z,13.20
2023-04-02T02:38:54.105Z,13.19
2023-04-02T02:41:37.136Z,13.17
2023-04-02T02:44:14.574Z,13.17
2023-04-02T02:46:45.010Z,13.17
2023-04-02T02:49:17.986Z,13.16
2023-04-02T02:51:50.165Z,13.13
2023-04-02T02:54:26.369Z,13.14
2023-04-02T02:57:00.407Z,13.15
2023-04-02T02:59:31.006Z,13.12
2023-04-02T03:02:00.701Z,13.12
2023-04-02T03:04:30.700Z,13.13
2023-04-02T03:06:58.910Z,13.12
2023-04-02T03:09:47.144Z,13.13
2023-04-02T03:12:37.069Z,13.13
2023-04-02T03:15:19.540Z,13.01
2023-04-02T03:18:22.768Z,12.97
2023-04-02T03:20:52.128Z,12.94
2023-04-02T03:23:41.036Z,12.93
2023-04-02T03:26:25.891Z,12.92
2023-04-02T03:29:23.566Z,12.90
2023-04-02T03:32:12.334Z,12.89
2023-04-02T03:35:00.418Z,12.87
2023-04-02T03:37:38.587Z,12.86
2023-04-02T03:40:10.322Z,12.85
2023-04-02T03:42:44.673Z,12.52
2023-04-02T03:45:37.241Z,12.42
2023-04-02T03:48:31.463Z,12.19
2023-04-02T03:51:19.168Z,12.23
2023-04-02T03:53:47.321Z,12.29
2023-04-02T03:56:29.069Z,12.35
2023-04-02T03:59:11.108Z,12.40
2023-04-02T04:01:45.904Z,12.41
2023-04-02T04:04:18.125Z,12.36
2023-04-02T04:06:49.527Z,12.44
2023-04-02T04:09:37.028Z,12.43
2023-04-02T04:12:16.743Z,12.45
2023-04-02T04:14:49.614Z,12.47
2023-04-02T04:17:34.796Z,12.40
2023-04-02T04:20:15.963Z,12.36
2023-04-02T04:22:43.594Z,12.36
2023-04-02T04:25:29.718Z,12.29
2023-04-02T04:28:09.233Z,12.09
2023-04-02T04:31:04.010Z,12.05
2023-04-02T04:33:41.849Z,12.06
2023-04-02T04:36:27.923Z,12.00
2023-04-02T04:39:07.618Z,11.98
2023-04-02T04:41:39.213Z,12.00
2023-04-02T04:44:38.226Z,11.97
2023-04-02T04:47:16.313Z,11.76
2023-04-02T04:49:49.183Z,11.72
2023-04-02T04:52:28.233Z,11.66
2023-04-02T04:55:03.570Z,11.60
2023-04-02T04:57:37.048Z,11.51
2023-04-02T05:00:27.598Z,11.62
2023-04-02T05:03:04.397Z,11.68
2023-04-02T05:05:36.627Z,11.55
2023-04-02T05:08:17.419Z,11.44
2023-04-02T05:10:51.073Z,11.37
2023-04-02T05:13:28.971Z,11.34
2023-04-02T05:16:17.940Z,11.43
2023-04-02T05:18:59.093Z,11.45
2023-04-02T05:21:44.024Z,11.52
2023-04-02T05:24:44.256Z,11.56
2023-04-02T05:27:45.167Z,11.52
2023-04-02T05:30:24.172Z,11.39
2023-04-02T05:32:57.474Z,11.28
2023-04-02T05:35:34.276Z,11.32
2023-04-02T05:38:02.461Z,11.32
2023-04-02T05:40:44.506Z,11.40
2023-04-02T05:43:17.352Z,11.48
2023-04-02T05:45:52.136Z,11.49
2023-04-02T05:48:25.547Z,11.50
2023-04-02T05:50:55.998Z,11.51
2023-04-02T05:53:36.271Z,11.49
2023-04-02T05:56:16.482Z,11.50
2023-04-02T05:58:48.189Z,11.57
2023-04-02T06:01:37.670Z,11.66
2023-04-02T06:04:45.248Z,11.61
2023-04-02T06:07:32.610Z,11.58
2023-04-02T06:10:18.671Z,11.54
2023-04-02T06:12:58.221Z,11.60
2023-04-02T06:15:26.091Z,11.69
2023-04-02T06:18:13.767Z,11.76
2023-04-02T06:20:41.946Z,11.85
2023-04-02T06:23:23.745Z,11.93
2023-04-02T06:26:03.626Z,11.99
2023-04-02T06:28:46.629Z,12.03
2023-04-02T06:31:30.658Z,12.05
2023-04-02T06:33:57.947Z,12.05
2023-04-02T06:36:30.293Z,12.11
2023-04-02T06:39:07.757Z,12.14
2023-04-02T06:41:35.337Z,12.13
2023-04-02T06:44:28.316Z,12.11
2023-04-02T06:47:29.700Z,12.09
2023-04-02T06:50:06.410Z,12.21
2023-04-02T06:52:39.024Z,12.24
2023-04-02T06:55:20.666Z,12.33
2023-04-02T06:57:48.672Z,12.44
2023-04-02T07:00:33.739Z,12.50
2023-04-02T07:03:05.136Z,12.56
2023-04-02T07:05:32.046Z,12.61
2023-04-02T07:07:59.052Z,12.66
2023-04-02T07:10:26.301Z,12.77
2023-04-02T07:12:53.068Z,12.86
2023-04-02T07:15:24.079Z,12.89
2023-04-02T07:17:52.215Z,12.92
2023-04-02T07:20:29.941Z,12.95
2023-04-02T07:22:59.796Z,13.03
2023-04-02T07:25:27.347Z,13.08
2023-04-02T07:27:55.203Z,13.17
2023-04-02T07:30:22.043Z,13.34
2023-04-02T07:32:49.284Z,13.38
2023-04-02T07:35:16.180Z,13.51
2023-04-02T07:37:43.108Z,13.61
2023-04-02T07:40:19.205Z,13.74
2023-04-02T07:42:46.116Z,13.81
2023-04-02T07:45:13.866Z,13.77
2023-04-02T07:47:40.869Z,13.82
2023-04-02T07:50:08.604Z,13.87
2023-04-02T07:52:40.647Z,14.01
2023-04-02T07:55:08.440Z,14.03
2023-04-02T07:57:39.126Z,14.01
2023-04-02T08:00:07.838Z,14.07
2023-04-02T08:02:39.196Z,14.06
2023-04-02T08:05:09.059Z,14.13
2023-04-02T08:07:36.631Z,14.19
2023-04-02T08:10:09.488Z,14.37
2023-04-02T08:12:36.689Z,14.57
2023-04-02T08:15:06.029Z,14.60
2023-04-02T08:17:33.661Z,14.52
2023-04-02T08:20:01.876Z,14.60
2023-04-02T08:22:29.795Z,14.68
2023-04-02T08:24:57.219Z,14.60
2023-04-02T08:27:25.313Z,14.49
2023-04-02T08:29:52.281Z,14.41
2023-04-02T08:32:19.059Z,14.33
2023-04-02T08:34:46.825Z,14.43
2023-04-02T08:37:14.269Z,14.41
2023-04-02T08:39:41.654Z,14.40
2023-04-02T08:42:26.677Z,14.45
2023-04-02T08:45:25.125Z,14.41
2023-04-02T08:47:56.703Z,14.40
2023-04-02T08:50:39.486Z,14.48
2023-04-02T08:53:21.977Z,14.66
2023-04-02T08:55:55.898Z,14.60
2023-04-02T08:58:28.556Z,14.62
2023-04-02T09:00:56.387Z,14.53
2023-04-02T09:03:36.093Z,14.42
2023-04-02T09:06:03.929Z,14.41
2023-04-02T09:08:32.666Z,14.46
2023-04-02T09:11:23.678Z,14.70
2023-04-02T09:14:03.148Z,14.80
2023-04-02T09:16:49.983Z,14.77
2023-04-02T09:19:19.683Z,14.79
2023-04-02T09:22:05.681Z,14.80
2023-04-02T09:24:33.438Z,14.83
2023-04-02T09:27:00.444Z,14.99
2023-04-02T09:29:49.458Z,15.11
2023-04-02T09:32:28.175Z,15.13
2023-04-02T09:35:14.977Z,15.31
2023-04-02T09:38:20.646Z,15.30
2023-04-02T09:40:47.609Z,15.31
2023-04-02T09:43:17.550Z,15.41
2023-04-02T09:45:59.937Z,15.53
2023-04-02T09:48:32.708Z,15.61
2023-04-02T09:51:11.507Z,15.63
2023-04-02T09:54:03.756Z,15.72
2023-04-02T09:56:32.406Z,15.74
2023-04-02T09:59:06.665Z,15.71
2023-04-02T10:01:39.484Z,15.70
2023-04-02T10:04:27.436Z,15.76
2023-04-02T10:06:58.051Z,15.72
2023-04-02T10:09:33.974Z,15.75
2023-04-02T10:12:04.439Z,15.80
2023-04-02T10:14:40.055Z,15.78
2023-04-02T10:17:18.452Z,15.88
2023-04-02T10:20:01.251Z,15.84
2023-04-02T10:22:28.824Z,15.66
2023-04-02T10:24:58.110Z,15.62
2023-04-02T10:28:03.535Z,15.51
2023-04-02T10:31:00.727Z,15.26
2023-04-02T10:33:33.209Z,15.06
2023-04-02T10:36:39.520Z,14.98
2023-04-02T10:39:15.877Z,14.82
2023-04-02T10:41:48.321Z,14.86
2023-04-02T10:44:40.178Z,14.71
2023-04-02T10:47:27.306Z,14.57
2023-04-02T10:50:07.572Z,14.51
2023-04-02T10:52:48.290Z,14.56
2023-04-02T10:55:23.976Z,14.59
2023-04-02T10:57:54.316Z,14.62
2023-04-02T11:00:35.231Z,14.62
2023-04-02T11:03:07.396Z,14.64
2023-04-02T11:05:47.454Z,14.71
2023-04-02T11:08:23.934Z,14.72
2023-04-02T11:10:57.071Z,14.62
2023-04-02T11:13:43.596Z,14.62
2023-04-02T11:16:15.615Z,14.55
2023-04-02T11:19:03.085Z,14.58
2023-04-02T11:21:51.125Z,14.66
2023-04-02T11:24:31.811Z,14.70
2023-04-02T11:27:10.510Z,14.69
2023-04-02T11:29:58.671Z,14.73
2023-04-02T11:32:27.745Z,14.78
2023-04-02T11:35:06.668Z,14.82
2023-04-02T11:37:43.993Z,14.86
2023-04-02T11:40:16.569Z,14.88
2023-04-02T11:42:48.122Z,15.03
2023-04-02T11:45:21.348Z,15.08
2023-04-02T11:48:17.572Z,15.22
2023-04-02T11:50:46.272Z,15.40
2023-04-02T11:53:15.910Z,15.55
2023-04-02T11:55:46.041Z,15.66
2023-04-02T11:58:24.766Z,15.65
2023-04-02T12:01:11.872Z,15.78
2023-04-02T12:03:38.714Z,15.79
2023-04-02T12:06:18.848Z,15.73
2023-04-02T12:09:04.874Z,15.67
2023-04-02T12:11:40.119Z,15.61
2023-04-02T12:14:38.529Z,15.55
2023-04-02T12:17:34.832Z,15.50
2023-04-02T12:20:10.647Z,15.41
2023-04-02T12:22:48.358Z,15.27
2023-04-02T12:25:21.693Z,15.23
2023-04-02T12:27:48.962Z,15.23
2023-04-02T12:30:23.501Z,15.23
2023-04-02T12:32:50.526Z,15.26
2023-04-02T12:35:45.664Z,15.24
2023-04-02T12:38:23.163Z,15.19
2023-04-02T12:40:58.759Z,15.16
2023-04-02T12:43:34.631Z,15.32
2023-04-02T12:46:05.460Z,15.35
2023-04-02T12:48:33.506Z,15.30
2023-04-02T12:51:01.444Z,15.28
2023-04-02T12:53:37.881Z,15.34
2023-04-02T12:56:05.906Z,15.35
2023-04-02T12:58:35.789Z,15.29
2023-04-02T13:01:13.433Z,15.24
2023-04-02T13:03:40.896Z,15.25
2023-04-02T13:06:37.373Z,15.24
2023-04-02T13:09:07.413Z,15.38
2023-04-02T13:11:39.731Z,15.51
2023-04-02T13:14:16.193Z,15.89
2023-04-02T13:16:43.224Z,16.00
2023-04-02T13:19:31.539Z,15.99
2023-04-02T13:22:01.226Z,15.97
2023-04-02T13:24:32.743Z,16.00
2023-04-02T13:27:01.869Z,15.98
2023-04-02T13:29:36.087Z,15.86
2023-04-02T13:32:11.762Z,16.07
2023-04-02T13:34:38.696Z,16.15
2023-04-02T13:37:05.495Z,16.43
2023-04-02T13:39:32.335Z,16.57
2023-04-02T13:42:02.487Z,16.42
2023-04-02T13:44:34.500Z,16.39
2023-04-02T13:47:01.531Z,16.33
2023-04-02T13:49:29.550Z,16.54
2023-04-02T13:52:05.048Z,16.71
2023-04-02T13:54:45.412Z,16.86
2023-04-02T13:57:12.595Z,17.11
2023-04-02T13:59:39.459Z,17.24
2023-04-02T14:02:14.296Z,17.28
2023-04-02T14:04:50.783Z,17.37
2023-04-02T14:07:50.281Z,17.43
2023-04-02T14:10:34.555Z,17.50
2023-04-02T14:13:18.072Z,17.53
2023-04-02T14:15:47.667Z,17.49
2023-04-02T14:18:41.296Z,17.58
2023-04-02T14:21:22.160Z,17.58
2023-04-02T14:24:07.893Z,17.41
2023-04-02T14:26:39.838Z,17.34
2023-04-02T14:29:23.876Z,16.89
2023-04-02T14:32:04.876Z,16.80
2023-04-02T14:34:34.738Z,16.57
2023-04-02T14:37:33.338Z,16.26
2023-04-02T14:40:21.478Z,16.02
2023-04-02T14:42:58.462Z,15.80
2023-04-02T14:45:40.129Z,15.60
2023-04-02T14:48:18.874Z,15.62
2023-04-02T14:50:45.742Z,15.48
2023-04-02T14:53:21.246Z,15.44
2023-04-02T14:55:51.957Z,15.46
2023-04-02T14:58:27.660Z,15.43
2023-04-02T15:01:09.674Z,15.39
2023-04-02T15:03:44.222Z,15.40
2023-04-02T15:06:16.144Z,15.39
2023-04-02T15:09:02.218Z,15.38
2023-04-02T15:11:40.748Z,15.40
2023-04-02T15:14:07.473Z,15.38
2023-04-02T15:16:36.627Z,15.36
2023-04-02T15:19:10.116Z,15.37
2023-04-02T15:22:14.323Z,15.39
2023-04-02T15:25:12.270Z,15.38
2023-04-02T15:28:01.966Z,15.39
2023-04-02T15:30:39.302Z,15.38
2023-04-02T15:33:27.520Z,15.32
2023-04-02T15:36:16.324Z,15.35
2023-04-02T15:38:45.127Z,15.44
2023-04-02T15:41:27.562Z,15.41
2023-04-02T15:44:06.188Z,15.43
2023-04-02T15:46:35.838Z,15.44
2023-04-02T15:49:14.758Z,15.47
2023-04-02T15:52:01.757Z,15.51
2023-04-02T15:54:53.064Z,15.55
2023-04-02T15:57:55.589Z,15.62
2023-04-02T16:01:24.163Z,15.62
2023-04-02T16:04:19.780Z,15.57
2023-04-02T16:07:01.714Z,15.45
2023-04-02T16:10:04.358Z,15.31
2023-04-02T16:12:34.911Z,15.24
2023-04-02T16:15:18.111Z,15.17
2023-04-02T16:17:51.611Z,15.16
2023-04-02T16:20:40.306Z,15.12
2023-04-02T16:23:22.378Z,15.11
2023-04-02T16:26:06.397Z,15.09
2023-04-02T16:28:57.421Z,15.01
2023-04-02T16:31:42.251Z,14.97
2023-04-02T16:34:32.982Z,14.88
2023-04-02T16:37:38.273Z,14.81
2023-04-02T16:40:20.200Z,14.73
2023-04-02T16:42:59.025Z,14.69
2023-04-02T16:46:03.296Z,14.67
2023-04-02T16:48:44.466Z,14.62
2023-04-02T16:51:26.449Z,14.61
2023-04-02T16:54:10.713Z,14.58
2023-04-02T16:56:56.242Z,14.58
2023-04-02T16:59:54.358Z,14.59
2023-04-02T17:02:50.021Z,14.58
2023-04-02T17:05:42.808Z,14.56
2023-04-02T17:08:27.102Z,14.61
2023-04-02T17:11:02.081Z,14.60
2023-04-02T17:13:54.173Z,14.55
2023-04-02T17:16:41.163Z,14.56
2023-04-02T17:19:16.109Z,14.48
2023-04-02T17:21:47.185Z,14.39
2023-04-02T17:24:17.199Z,14.38
2023-04-02T17:26:48.339Z,14.37
2023-04-02T17:29:25.682Z,14.34
2023-04-02T17:31:55.168Z,14.35
2023-04-02T17:34:23.936Z,14.29
2023-04-02T17:37:27.796Z,14.24
2023-04-02T17:40:00.319Z,14.22
2023-04-02T17:42:51.859Z,14.20
2023-04-02T17:45:21.555Z,14.18
2023-04-02T17:48:07.083Z,14.21
2023-04-02T17:50:42.600Z,14.12
2023-04-02T17:53:21.786Z,14.11
2023-04-02T17:56:17.570Z,14.12
2023-04-02T17:58:50.024Z,13.98
2023-04-02T18:01:22.825Z,13.92
2023-04-02T18:04:13.631Z,13.64
2023-04-02T18:06:59.148Z,13.53
2023-04-02T18:09:37.896Z,13.55
2023-04-02T18:12:04.778Z,13.61
2023-04-02T18:14:46.826Z,13.63
2023-04-02T18:17:48.033Z,13.55
2023-04-02T18:20:21.110Z,13.34
2023-04-02T18:23:01.239Z,13.19
2023-04-02T18:25:37.071Z,13.08
2023-04-02T18:28:45.677Z,13.04
2023-04-02T18:31:35.481Z,13.06
2023-04-02T18:34:02.276Z,13.13
2023-04-02T18:37:05.363Z,13.16
2023-04-02T18:39:50.578Z,13.19
2023-04-02T18:42:51.979Z,13.14
2023-04-02T18:45:18.747Z,13.16
2023-04-02T18:48:05.015Z,13.16
2023-04-02T18:50:39.382Z,12.97
2023-04-02T18:53:18.715Z,12.94
2023-04-02T18:55:52.811Z,12.87
2023-04-02T18:58:49.496Z,12.73
2023-04-02T19:01:22.721Z,12.77
2023-04-02T19:03:53.165Z,12.79
2023-04-02T19:06:52.604Z,12.78
2023-04-02T19:09:25.728Z,12.76
2023-04-02T19:11:55.732Z,12.76
2023-04-02T19:14:26.115Z,12.72
2023-04-02T19:17:05.394Z,12.54
2023-04-02T19:19:38.425Z,12.26
2023-04-02T19:22:35.645Z,12.15
2023-04-02T19:25:27.546Z,12.17
2023-04-02T19:28:18.330Z,12.25
2023-04-02T19:31:17.823Z,12.16
2023-04-02T19:33:50.649Z,12.19
2023-04-02T19:36:32.139Z,12.00
2023-04-02T19:39:23.621Z,11.92
2023-04-02T19:41:54.397Z,11.89
2023-04-02T19:44:22.075Z,11.92
2023-04-02T19:46:51.595Z,11.97
2023-04-02T19:49:25.905Z,11.90
2023-04-02T19:51:53.724Z,11.87
2023-04-02T19:54:20.912Z,11.79
2023-04-02T19:56:48.492Z,11.81
2023-04-02T19:59:17.935Z,11.73
2023-04-02T20:01:46.988Z,11.66
2023-04-02T20:04:15.338Z,11.73
2023-04-02T20:06:42.730Z,11.75
2023-04-02T20:09:10.344Z,11.84
2023-04-02T20:11:38.302Z,11.86
2023-04-02T20:14:05.957Z,11.88
2023-04-02T20:16:33.985Z,11.91
2023-04-02T20:19:01.177Z,11.82
2023-04-02T20:21:28.090Z,11.77
2023-04-02T20:23:56.096Z,11.62
2023-04-02T20:26:23.390Z,11.54
2023-04-02T20:28:50.789Z,11.49
2023-04-02T20:31:18.907Z,11.53
2023-04-02T20:33:46.720Z,11.50
2023-04-02T20:36:30.828Z,11.34
2023-04-02T20:38:59.038Z,11.28
2023-04-02T20:41:26.855Z,11.31
2023-04-02T20:43:53.902Z,11.32
2023-04-02T20:46:20.886Z,11.48
2023-04-02T20:48:48.165Z,11.36
2023-04-02T20:51:15.974Z,11.25
2023-04-02T20:53:42.873Z,11.15
2023-04-02T20:56:15.757Z,11.26
2023-04-02T20:58:43.570Z,11.35
2023-04-02T21:01:19.473Z,11.19
2023-04-02T21:03:46.930Z,11.18
2023-04-02T21:06:21.326Z,11.27
2023-04-02T21:08:49.619Z,11.33
2023-04-02T21:11:17.417Z,10.93
2023-04-02T21:13:44.645Z,10.79
2023-04-02T21:16:14.323Z,10.94
2023-04-02T21:18:41.182Z,11.01
2023-04-02T21:21:08.509Z,10.65
2023-04-02T21:23:35.309Z,10.74
2023-04-02T21:26:06.218Z,10.74
2023-04-02T21:28:33.581Z,10.78
2023-04-02T21:31:15.050Z,10.93
2023-04-02T21:33:44.990Z,11.02
2023-04-02T21:36:21.773Z,10.89
2023-04-02T21:38:51.617Z,10.98
2023-04-02T21:41:20.867Z,10.80
2023-04-02T21:43:48.429Z,10.91
2023-04-02T21:46:16.586Z,10.98
2023-04-02T21:48:43.649Z,11.06
2023-04-02T21:51:12.830Z,10.61
2023-04-02T21:53:41.019Z,10.83
2023-04-02T21:56:11.700Z,10.84
2023-04-02T21:58:38.580Z,10.75
2023-04-02T22:01:09.080Z,10.68
2023-04-02T22:03:41.153Z,10.84
2023-04-02T22:06:13.244Z,10.37
2023-04-02T22:08:41.577Z,10.61
2023-04-02T22:11:12.654Z,10.61
2023-04-02T22:13:41.707Z,10.24
2023-04-02T22:16:11.938Z,10.34
2023-04-02T22:18:39.324Z,10.42
2023-04-02T22:21:06.457Z,10.16
2023-04-02T22:23:34.099Z,10.24
2023-04-02T22:26:01.802Z,10.36
2023-04-02T22:28:29.264Z,10.37
2023-04-02T22:30:56.422Z,10.44
2023-04-02T22:33:23.247Z,10.50
2023-04-02T22:35:51.829Z,10.44
2023-04-02T22:38:19.400Z,10.53
2023-04-02T22:40:46.235Z,10.66
2023-04-02T22:43:13.011Z,10.68
2023-04-02T22:45:39.860Z,10.69
2023-04-02T22:48:06.911Z,10.45
2023-04-02T22:50:33.745Z,10.59
2023-04-02T22:53:01.366Z,10.39
2023-04-02T22:55:28.393Z,10.55
2023-04-02T22:57:55.601Z,10.41
2023-04-02T23:00:23.159Z,10.47
2023-04-02T23:02:49.950Z,10.58
2023-04-02T23:05:17.072Z,10.24
2023-04-02T23:07:43.898Z,10.28
2023-04-02T23:10:11.081Z,10.43
2023-04-02T23:12:37.830Z,10.53
2023-04-02T23:15:05.633Z,10.65
2023-04-02T23:17:32.432Z,10.68
2023-04-02T23:19:59.076Z,10.75
2023-04-02T23:22:25.867Z,10.79
2023-04-02T23:24:54.632Z,10.70
2023-04-02T23:27:22.555Z,10.60
2023-04-02T23:29:50.181Z,10.42
2023-04-02T23:32:17.940Z,10.40
2023-04-02T23:34:44.760Z,10.48
2023-04-02T23:37:11.636Z,10.48
2023-04-02T23:39:38.587Z,10.57
2023-04-02T23:42:05.656Z,10.27
2023-04-02T23:44:32.464Z,10.38
2023-04-02T23:46:59.861Z,10.41
2023-04-02T23:49:27.144Z,10.38
2023-04-02T23:51:54.301Z,10.22
2023-04-02T23:54:21.144Z,10.23
2023-04-02T23:56:48.014Z,10.33
2023-04-02T23:59:14.690Z,10.16
